Terminal Aerodrome Forecast
Issued by NWS Sterling, VA

Current Version | Previous Version | Text Only | Print | Product List | Glossary Off
Versions: 1 2 3 4 5 6 7 8 9 10 11 12 13 14 15 16 17 18 19 20 21 22 23 24 25 26

000
FTUS41 KLWX 230500 RRA
TAFDCA
TAF
KDCA 230547Z 2306/2406 34005KT 2SM -DZ BR OVC007
     FM230800 33004KT 2SM -DZ BR OVC003
     FM231300 VRB03KT 3SM BR OVC008
     FM240200 00000KT 3SM -RA BR OVC003=

USA.gov is the U.S. government's official web portal to all federal, state and local government web resources and services.